sensor_id;sensor_type;location;lat;lon;timestamp;P1;durP1;ratioP1;P2;durP2;ratioP2
20146;SDS011;10234;50.856;15.716;2023-12-07T00:01:13;134.43;;;62.13;;
20146;SDS011;10234;50.856;15.716;2023-12-07T00:03:42;130.75;;;58.10;;
20146;SDS011;10234;50.856;15.716;2023-12-07T00:06:09;128.52;;;56.83;;
20146;SDS011;10234;50.856;15.716;2023-12-07T00:08:35;135.63;;;59.70;;
20146;SDS011;10234;50.856;15.716;2023-12-07T00:11:03;116.13;;;53.72;;
20146;SDS011;10234;50.856;15.716;2023-12-07T00:13:30;123.50;;;60.22;;
20146;SDS011;10234;50.856;15.716;2023-12-07T00:15:56;120.00;;;56.33;;
20146;SDS011;10234;50.856;15.716;2023-12-07T00:18:23;125.55;;;57.55;;
20146;SDS011;10234;50.856;15.716;2023-12-07T00:20:52;117.75;;;55.47;;
20146;SDS011;10234;50.856;15.716;2023-12-07T00:23:17;120.72;;;59.13;;
20146;SDS011;10234;50.856;15.716;2023-12-07T00:25:44;126.63;;;60.92;;
20146;SDS011;10234;50.856;15.716;2023-12-07T00:28:11;147.77;;;62.72;;
20146;SDS011;10234;50.856;15.716;2023-12-07T00:30:39;131.85;;;65.03;;
20146;SDS011;10234;50.856;15.716;2023-12-07T00:33:07;136.27;;;58.30;;
20146;SDS011;10234;50.856;15.716;2023-12-07T00:35:34;124.85;;;58.92;;
20146;SDS011;10234;50.856;15.716;2023-12-07T00:38:02;122.72;;;59.20;;
20146;SDS011;10234;50.856;15.716;2023-12-07T00:40:31;128.93;;;59.15;;
20146;SDS011;10234;50.856;15.716;2023-12-07T00:43:01;130.45;;;57.78;;
20146;SDS011;10234;50.856;15.716;2023-12-07T00:45:28;124.00;;;56.75;;
20146;SDS011;10234;50.856;15.716;2023-12-07T00:47:55;135.32;;;59.10;;
20146;SDS011;10234;50.856;15.716;2023-12-07T00:50:22;120.00;;;58.15;;
20146;SDS011;10234;50.856;15.716;2023-12-07T00:52:49;112.68;;;57.03;;
20146;SDS011;10234;50.856;15.716;2023-12-07T00:55:17;128.07;;;63.05;;
20146;SDS011;10234;50.856;15.716;2023-12-07T00:57:44;123.45;;;57.97;;
20146;SDS011;10234;50.856;15.716;2023-12-07T01:00:11;121.38;;;56.08;;
20146;SDS011;10234;50.856;15.716;2023-12-07T01:02:38;127.55;;;53.97;;
20146;SDS011;10234;50.856;15.716;2023-12-07T01:05:06;120.78;;;53.70;;
20146;SDS011;10234;50.856;15.716;2023-12-07T01:07:33;113.10;;;51.40;;
20146;SDS011;10234;50.856;15.716;2023-12-07T01:10:00;117.28;;;56.25;;
20146;SDS011;10234;50.856;15.716;2023-12-07T01:12:28;133.40;;;62.95;;
20146;SDS011;10234;50.856;15.716;2023-12-07T01:14:55;132.52;;;57.00;;
20146;SDS011;10234;50.856;15.716;2023-12-07T01:17:22;121.95;;;56.08;;
20146;SDS011;10234;50.856;15.716;2023-12-07T01:19:49;120.78;;;54.15;;
20146;SDS011;10234;50.856;15.716;2023-12-07T01:22:15;107.50;;;53.42;;
20146;SDS011;10234;50.856;15.716;2023-12-07T01:24:42;112.32;;;53.78;;
20146;SDS011;10234;50.856;15.716;2023-12-07T01:27:09;113.13;;;51.47;;
20146;SDS011;10234;50.856;15.716;2023-12-07T01:29:38;122.00;;;54.15;;
20146;SDS011;10234;50.856;15.716;2023-12-07T01:32:05;114.65;;;52.58;;
20146;SDS011;10234;50.856;15.716;2023-12-07T01:34:32;121.43;;;55.92;;
20146;SDS011;10234;50.856;15.716;2023-12-07T01:36:59;118.10;;;53.67;;
20146;SDS011;10234;50.856;15.716;2023-12-07T01:39:26;114.55;;;52.05;;
20146;SDS011;10234;50.856;15.716;2023-12-07T01:41:53;110.03;;;51.08;;
20146;SDS011;10234;50.856;15.716;2023-12-07T01:44:20;116.22;;;52.20;;
20146;SDS011;10234;50.856;15.716;2023-12-07T01:46:48;122.18;;;54.50;;
20146;SDS011;10234;50.856;15.716;2023-12-07T01:49:15;107.25;;;51.70;;
20146;SDS011;10234;50.856;15.716;2023-12-07T01:51:42;98.55;;;49.45;;
20146;SDS011;10234;50.856;15.716;2023-12-07T01:54:08;112.07;;;51.05;;
20146;SDS011;10234;50.856;15.716;2023-12-07T01:56:35;108.00;;;51.92;;
20146;SDS011;10234;50.856;15.716;2023-12-07T01:59:02;94.43;;;45.67;;
20146;SDS011;10234;50.856;15.716;2023-12-07T02:01:29;103.10;;;46.20;;
20146;SDS011;10234;50.856;15.716;2023-12-07T02:03:57;97.70;;;47.60;;
20146;SDS011;10234;50.856;15.716;2023-12-07T02:06:24;90.88;;;45.80;;
20146;SDS011;10234;50.856;15.716;2023-12-07T02:08:52;87.43;;;40.25;;
20146;SDS011;10234;50.856;15.716;2023-12-07T02:11:19;78.80;;;41.47;;
20146;SDS011;10234;50.856;15.716;2023-12-07T02:13:46;77.00;;;37.90;;
20146;SDS011;10234;50.856;15.716;2023-12-07T02:16:14;70.55;;;34.70;;
20146;SDS011;10234;50.856;15.716;2023-12-07T02:18:46;56.67;;;30.73;;
20146;SDS011;10234;50.856;15.716;2023-12-07T02:21:21;70.25;;;33.08;;
20146;SDS011;10234;50.856;15.716;2023-12-07T02:23:56;70.70;;;32.40;;
20146;SDS011;10234;50.856;15.716;2023-12-07T02:26:30;62.53;;;33.05;;
20146;SDS011;10234;50.856;15.716;2023-12-07T02:28:57;66.30;;;33.45;;
20146;SDS011;10234;50.856;15.716;2023-12-07T02:31:24;70.63;;;33.35;;
20146;SDS011;10234;50.856;15.716;2023-12-07T02:33:51;66.32;;;32.33;;
20146;SDS011;10234;50.856;15.716;2023-12-07T02:36:19;63.75;;;31.88;;
20146;SDS011;10234;50.856;15.716;2023-12-07T02:38:48;63.75;;;30.40;;
20146;SDS011;10234;50.856;15.716;2023-12-07T02:41:17;70.32;;;32.95;;
20146;SDS011;10234;50.856;15.716;2023-12-07T02:43:46;67.25;;;29.85;;
20146;SDS011;10234;50.856;15.716;2023-12-07T02:46:13;59.90;;;29.30;;
20146;SDS011;10234;50.856;15.716;2023-12-07T02:48:40;60.95;;;32.20;;
20146;SDS011;10234;50.856;15.716;2023-12-07T02:51:07;70.25;;;31.70;;
20146;SDS011;10234;50.856;15.716;2023-12-07T02:53:33;61.97;;;28.88;;
20146;SDS011;10234;50.856;15.716;2023-12-07T02:56:00;59.20;;;30.63;;
20146;SDS011;10234;50.856;15.716;2023-12-07T02:58:27;65.47;;;29.50;;
20146;SDS011;10234;50.856;15.716;2023-12-07T03:00:55;51.92;;;27.50;;
20146;SDS011;10234;50.856;15.716;2023-12-07T03:03:22;61.08;;;28.55;;
20146;SDS011;10234;50.856;15.716;2023-12-07T03:05:49;52.20;;;26.35;;
20146;SDS011;10234;50.856;15.716;2023-12-07T03:08:16;59.00;;;29.02;;
20146;SDS011;10234;50.856;15.716;2023-12-07T03:10:43;53.80;;;27.98;;
20146;SDS011;10234;50.856;15.716;2023-12-07T03:13:10;59.25;;;28.55;;
20146;SDS011;10234;50.856;15.716;2023-12-07T03:15:37;57.80;;;27.40;;
20146;SDS011;10234;50.856;15.716;2023-12-07T03:18:04;50.38;;;27.63;;
20146;SDS011;10234;50.856;15.716;2023-12-07T03:20:32;56.63;;;28.52;;
20146;SDS011;10234;50.856;15.716;2023-12-07T03:23:01;47.80;;;27.25;;
20146;SDS011;10234;50.856;15.716;2023-12-07T03:25:28;57.00;;;30.23;;
20146;SDS011;10234;50.856;15.716;2023-12-07T03:27:55;52.83;;;27.33;;
20146;SDS011;10234;50.856;15.716;2023-12-07T03:30:22;51.33;;;27.00;;
20146;SDS011;10234;50.856;15.716;2023-12-07T03:32:49;50.45;;;23.88;;
20146;SDS011;10234;50.856;15.716;2023-12-07T03:35:18;40.67;;;21.67;;
20146;SDS011;10234;50.856;15.716;2023-12-07T03:37:44;29.77;;;17.40;;
20146;SDS011;10234;50.856;15.716;2023-12-07T03:40:11;39.97;;;20.17;;
20146;SDS011;10234;50.856;15.716;2023-12-07T03:42:38;34.50;;;19.08;;
20146;SDS011;10234;50.856;15.716;2023-12-07T03:45:05;34.28;;;18.10;;
20146;SDS011;10234;50.856;15.716;2023-12-07T03:47:33;43.85;;;20.25;;
20146;SDS011;10234;50.856;15.716;2023-12-07T03:50:00;40.50;;;18.77;;
20146;SDS011;10234;50.856;15.716;2023-12-07T03:52:28;29.08;;;17.20;;
20146;SDS011;10234;50.856;15.716;2023-12-07T03:54:55;33.67;;;15.55;;
20146;SDS011;10234;50.856;15.716;2023-12-07T03:57:22;25.00;;;13.60;;
20146;SDS011;10234;50.856;15.716;2023-12-07T03:59:48;23.77;;;13.15;;
20146;SDS011;10234;50.856;15.716;2023-12-07T04:02:15;15.18;;;6.97;;
20146;SDS011;10234;50.856;15.716;2023-12-07T04:04:42;12.73;;;7.55;;
20146;SDS011;10234;50.856;15.716;2023-12-07T04:07:09;5.97;;;4.90;;
20146;SDS011;10234;50.856;15.716;2023-12-07T04:09:37;8.40;;;4.93;;
20146;SDS011;10234;50.856;15.716;2023-12-07T04:12:04;8.93;;;4.88;;
20146;SDS011;10234;50.856;15.716;2023-12-07T04:14:32;11.32;;;6.13;;
20146;SDS011;10234;50.856;15.716;2023-12-07T04:16:58;5.45;;;4.25;;
20146;SDS011;10234;50.856;15.716;2023-12-07T04:19:25;6.70;;;4.28;;
20146;SDS011;10234;50.856;15.716;2023-12-07T04:21:52;10.65;;;5.93;;
20146;SDS011;10234;50.856;15.716;2023-12-07T04:24:19;7.05;;;3.90;;
20146;SDS011;10234;50.856;15.716;2023-12-07T04:26:47;8.45;;;4.65;;
20146;SDS011;10234;50.856;15.716;2023-12-07T04:29:14;8.00;;;4.50;;
20146;SDS011;10234;50.856;15.716;2023-12-07T04:31:41;7.57;;;5.00;;
20146;SDS011;10234;50.856;15.716;2023-12-07T04:34:09;8.77;;;4.35;;
20146;SDS011;10234;50.856;15.716;2023-12-07T04:36:36;6.32;;;4.50;;
20146;SDS011;10234;50.856;15.716;2023-12-07T04:39:03;8.05;;;4.72;;
20146;SDS011;10234;50.856;15.716;2023-12-07T04:41:30;5.05;;;4.15;;
20146;SDS011;10234;50.856;15.716;2023-12-07T04:43:58;6.47;;;4.13;;
20146;SDS011;10234;50.856;15.716;2023-12-07T04:46:25;7.43;;;4.30;;
20146;SDS011;10234;50.856;15.716;2023-12-07T04:48:53;7.10;;;4.22;;
20146;SDS011;10234;50.856;15.716;2023-12-07T04:51:20;10.05;;;4.97;;
20146;SDS011;10234;50.856;15.716;2023-12-07T04:53:47;5.63;;;4.18;;
20146;SDS011;10234;50.856;15.716;2023-12-07T04:56:14;6.20;;;4.03;;
20146;SDS011;10234;50.856;15.716;2023-12-07T04:58:40;6.72;;;4.30;;
20146;SDS011;10234;50.856;15.716;2023-12-07T05:01:09;6.75;;;4.53;;
20146;SDS011;10234;50.856;15.716;2023-12-07T05:03:35;5.30;;;4.20;;
20146;SDS011;10234;50.856;15.716;2023-12-07T05:06:02;6.82;;;3.83;;
20146;SDS011;10234;50.856;15.716;2023-12-07T05:08:29;6.45;;;4.75;;
20146;SDS011;10234;50.856;15.716;2023-12-07T05:10:57;7.97;;;4.22;;
20146;SDS011;10234;50.856;15.716;2023-12-07T05:13:24;6.38;;;4.72;;
20146;SDS011;10234;50.856;15.716;2023-12-07T05:15:51;7.07;;;5.00;;
20146;SDS011;10234;50.856;15.716;2023-12-07T05:18:19;6.70;;;4.75;;
20146;SDS011;10234;50.856;15.716;2023-12-07T05:20:45;9.68;;;5.47;;
20146;SDS011;10234;50.856;15.716;2023-12-07T05:23:15;10.55;;;5.38;;
20146;SDS011;10234;50.856;15.716;2023-12-07T05:25:42;19.70;;;8.63;;
20146;SDS011;10234;50.856;15.716;2023-12-07T05:28:09;18.85;;;9.85;;
20146;SDS011;10234;50.856;15.716;2023-12-07T05:30:36;18.20;;;9.23;;
20146;SDS011;10234;50.856;15.716;2023-12-07T05:33:03;15.02;;;8.73;;
20146;SDS011;10234;50.856;15.716;2023-12-07T05:35:31;13.43;;;7.57;;
20146;SDS011;10234;50.856;15.716;2023-12-07T05:37:58;11.73;;;6.32;;
20146;SDS011;10234;50.856;15.716;2023-12-07T05:40:25;8.77;;;5.18;;
20146;SDS011;10234;50.856;15.716;2023-12-07T05:42:52;8.55;;;4.95;;
20146;SDS011;10234;50.856;15.716;2023-12-07T05:45:19;5.88;;;4.18;;
20146;SDS011;10234;50.856;15.716;2023-12-07T05:47:46;8.35;;;5.00;;
20146;SDS011;10234;50.856;15.716;2023-12-07T05:50:13;8.63;;;5.18;;
20146;SDS011;10234;50.856;15.716;2023-12-07T05:52:41;8.40;;;5.82;;
20146;SDS011;10234;50.856;15.716;2023-12-07T05:55:09;11.88;;;6.72;;
20146;SDS011;10234;50.856;15.716;2023-12-07T05:57:36;15.93;;;8.05;;
20146;SDS011;10234;50.856;15.716;2023-12-07T06:00:03;14.93;;;8.10;;
20146;SDS011;10234;50.856;15.716;2023-12-07T06:02:34;13.15;;;7.50;;
20146;SDS011;10234;50.856;15.716;2023-12-07T06:05:01;15.00;;;7.95;;
20146;SDS011;10234;50.856;15.716;2023-12-07T06:07:30;10.00;;;6.95;;
20146;SDS011;10234;50.856;15.716;2023-12-07T06:09:58;11.18;;;6.72;;
20146;SDS011;10234;50.856;15.716;2023-12-07T06:12:25;10.63;;;6.55;;
20146;SDS011;10234;50.856;15.716;2023-12-07T06:14:52;11.75;;;7.43;;
20146;SDS011;10234;50.856;15.716;2023-12-07T06:17:19;11.35;;;7.30;;
20146;SDS011;10234;50.856;15.716;2023-12-07T06:19:47;14.00;;;6.47;;
20146;SDS011;10234;50.856;15.716;2023-12-07T06:22:13;11.82;;;6.57;;
20146;SDS011;10234;50.856;15.716;2023-12-07T06:24:40;9.43;;;6.30;;
20146;SDS011;10234;50.856;15.716;2023-12-07T06:27:08;8.15;;;6.32;;
20146;SDS011;10234;50.856;15.716;2023-12-07T06:29:36;12.75;;;6.28;;
20146;SDS011;10234;50.856;15.716;2023-12-07T06:32:03;14.40;;;7.10;;
20146;SDS011;10234;50.856;15.716;2023-12-07T06:34:30;9.18;;;5.38;;
20146;SDS011;10234;50.856;15.716;2023-12-07T06:36:57;11.65;;;6.38;;
20146;SDS011;10234;50.856;15.716;2023-12-07T06:39:24;10.68;;;7.28;;
20146;SDS011;10234;50.856;15.716;2023-12-07T06:41:51;11.25;;;7.68;;
20146;SDS011;10234;50.856;15.716;2023-12-07T06:44:20;10.00;;;6.35;;
20146;SDS011;10234;50.856;15.716;2023-12-07T06:46:47;9.20;;;6.07;;
20146;SDS011;10234;50.856;15.716;2023-12-07T06:49:14;11.05;;;6.40;;
20146;SDS011;10234;50.856;15.716;2023-12-07T06:51:41;9.68;;;6.93;;
20146;SDS011;10234;50.856;15.716;2023-12-07T06:54:08;12.20;;;6.80;;
20146;SDS011;10234;50.856;15.716;2023-12-07T06:56:36;14.15;;;6.68;;
20146;SDS011;10234;50.856;15.716;2023-12-07T06:59:03;12.88;;;6.38;;
20146;SDS011;10234;50.856;15.716;2023-12-07T07:01:31;16.92;;;8.40;;
20146;SDS011;10234;50.856;15.716;2023-12-07T07:03:58;12.73;;;7.32;;
20146;SDS011;10234;50.856;15.716;2023-12-07T07:06:25;9.82;;;6.78;;
20146;SDS011;10234;50.856;15.716;2023-12-07T07:08:52;12.90;;;7.32;;
20146;SDS011;10234;50.856;15.716;2023-12-07T07:11:19;11.38;;;7.18;;
20146;SDS011;10234;50.856;15.716;2023-12-07T07:13:46;14.73;;;8.07;;
20146;SDS011;10234;50.856;15.716;2023-12-07T07:16:13;11.60;;;7.50;;
20146;SDS011;10234;50.856;15.716;2023-12-07T07:18:42;11.60;;;7.63;;
20146;SDS011;10234;50.856;15.716;2023-12-07T07:21:08;13.85;;;7.32;;
20146;SDS011;10234;50.856;15.716;2023-12-07T07:23:35;14.70;;;8.15;;
20146;SDS011;10234;50.856;15.716;2023-12-07T07:26:03;15.20;;;8.35;;
20146;SDS011;10234;50.856;15.716;2023-12-07T07:28:30;8.95;;;6.43;;
20146;SDS011;10234;50.856;15.716;2023-12-07T07:30:57;10.45;;;5.45;;
20146;SDS011;10234;50.856;15.716;2023-12-07T07:33:25;9.77;;;5.80;;
20146;SDS011;10234;50.856;15.716;2023-12-07T07:35:53;15.85;;;8.73;;
20146;SDS011;10234;50.856;15.716;2023-12-07T07:38:20;10.45;;;6.20;;
20146;SDS011;10234;50.856;15.716;2023-12-07T07:40:48;14.90;;;7.63;;
20146;SDS011;10234;50.856;15.716;2023-12-07T07:43:15;14.18;;;9.23;;
20146;SDS011;10234;50.856;15.716;2023-12-07T07:45:42;15.50;;;9.52;;
20146;SDS011;10234;50.856;15.716;2023-12-07T07:48:11;12.75;;;7.97;;
20146;SDS011;10234;50.856;15.716;2023-12-07T07:50:38;9.93;;;7.57;;
20146;SDS011;10234;50.856;15.716;2023-12-07T07:53:06;14.52;;;8.18;;
20146;SDS011;10234;50.856;15.716;2023-12-07T07:55:33;11.23;;;6.20;;
20146;SDS011;10234;50.856;15.716;2023-12-07T07:58:00;10.75;;;6.45;;
20146;SDS011;10234;50.856;15.716;2023-12-07T08:00:27;9.95;;;6.43;;
20146;SDS011;10234;50.856;15.716;2023-12-07T08:02:56;9.07;;;6.20;;
20146;SDS011;10234;50.856;15.716;2023-12-07T08:05:22;12.15;;;7.05;;
20146;SDS011;10234;50.856;15.716;2023-12-07T08:07:50;14.40;;;7.78;;
20146;SDS011;10234;50.856;15.716;2023-12-07T08:10:18;19.17;;;10.80;;
20146;SDS011;10234;50.856;15.716;2023-12-07T08:12:45;16.13;;;10.02;;
20146;SDS011;10234;50.856;15.716;2023-12-07T08:15:13;12.73;;;8.15;;
20146;SDS011;10234;50.856;15.716;2023-12-07T08:17:40;9.55;;;6.85;;
20146;SDS011;10234;50.856;15.716;2023-12-07T08:20:07;13.40;;;7.70;;
20146;SDS011;10234;50.856;15.716;2023-12-07T08:22:35;10.60;;;7.10;;
20146;SDS011;10234;50.856;15.716;2023-12-07T08:25:02;12.43;;;6.78;;
20146;SDS011;10234;50.856;15.716;2023-12-07T08:27:32;11.18;;;7.65;;
20146;SDS011;10234;50.856;15.716;2023-12-07T08:29:59;18.63;;;9.63;;
20146;SDS011;10234;50.856;15.716;2023-12-07T08:32:25;21.42;;;11.73;;
20146;SDS011;10234;50.856;15.716;2023-12-07T08:34:53;17.52;;;10.68;;
20146;SDS011;10234;50.856;15.716;2023-12-07T08:37:20;24.70;;;12.07;;
20146;SDS011;10234;50.856;15.716;2023-12-07T08:39:47;23.33;;;11.48;;
20146;SDS011;10234;50.856;15.716;2023-12-07T08:42:14;25.15;;;15.40;;
20146;SDS011;10234;50.856;15.716;2023-12-07T08:44:43;19.83;;;12.73;;
20146;SDS011;10234;50.856;15.716;2023-12-07T08:47:10;17.73;;;10.52;;
20146;SDS011;10234;50.856;15.716;2023-12-07T08:49:37;22.67;;;12.73;;
20146;SDS011;10234;50.856;15.716;2023-12-07T08:52:04;16.10;;;10.48;;
20146;SDS011;10234;50.856;15.716;2023-12-07T08:54:31;19.33;;;10.20;;
20146;SDS011;10234;50.856;15.716;2023-12-07T08:56:58;13.05;;;8.98;;
20146;SDS011;10234;50.856;15.716;2023-12-07T08:59:25;12.68;;;8.05;;
20146;SDS011;10234;50.856;15.716;2023-12-07T09:01:54;15.57;;;9.60;;
20146;SDS011;10234;50.856;15.716;2023-12-07T09:04:20;11.25;;;7.50;;
20146;SDS011;10234;50.856;15.716;2023-12-07T09:06:47;13.27;;;8.10;;
20146;SDS011;10234;50.856;15.716;2023-12-07T09:09:15;11.85;;;7.25;;
20146;SDS011;10234;50.856;15.716;2023-12-07T09:11:42;17.35;;;9.10;;
20146;SDS011;10234;50.856;15.716;2023-12-07T09:14:09;13.77;;;9.48;;
20146;SDS011;10234;50.856;15.716;2023-12-07T09:16:42;14.23;;;10.13;;
20146;SDS011;10234;50.856;15.716;2023-12-07T09:19:11;17.45;;;11.20;;
20146;SDS011;10234;50.856;15.716;2023-12-07T09:21:39;14.90;;;9.68;;
20146;SDS011;10234;50.856;15.716;2023-12-07T09:24:06;14.70;;;10.23;;
20146;SDS011;10234;50.856;15.716;2023-12-07T09:26:33;13.93;;;8.73;;
20146;SDS011;10234;50.856;15.716;2023-12-07T09:29:01;13.18;;;8.50;;
20146;SDS011;10234;50.856;15.716;2023-12-07T09:31:28;11.70;;;6.93;;
20146;SDS011;10234;50.856;15.716;2023-12-07T09:33:55;8.02;;;5.75;;
20146;SDS011;10234;50.856;15.716;2023-12-07T09:36:23;8.20;;;5.72;;
20146;SDS011;10234;50.856;15.716;2023-12-07T09:38:52;8.57;;;5.72;;
20146;SDS011;10234;50.856;15.716;2023-12-07T09:41:18;9.63;;;4.70;;
20146;SDS011;10234;50.856;15.716;2023-12-07T09:43:46;6.65;;;4.28;;
20146;SDS011;10234;50.856;15.716;2023-12-07T09:46:13;5.45;;;4.30;;
20146;SDS011;10234;50.856;15.716;2023-12-07T09:48:41;7.38;;;4.90;;
20146;SDS011;10234;50.856;15.716;2023-12-07T09:51:09;7.80;;;5.13;;
20146;SDS011;10234;50.856;15.716;2023-12-07T09:53:39;7.53;;;4.90;;
20146;SDS011;10234;50.856;15.716;2023-12-07T09:56:08;7.10;;;4.97;;
20146;SDS011;10234;50.856;15.716;2023-12-07T09:58:36;7.13;;;4.93;;
20146;SDS011;10234;50.856;15.716;2023-12-07T10:01:03;6.25;;;5.38;;
20146;SDS011;10234;50.856;15.716;2023-12-07T10:03:30;7.97;;;5.95;;
20146;SDS011;10234;50.856;15.716;2023-12-07T10:05:57;6.47;;;5.07;;
20146;SDS011;10234;50.856;15.716;2023-12-07T10:08:25;6.75;;;5.07;;
20146;SDS011;10234;50.856;15.716;2023-12-07T10:11:02;7.10;;;5.75;;
20146;SDS011;10234;50.856;15.716;2023-12-07T10:13:31;9.30;;;5.78;;
20146;SDS011;10234;50.856;15.716;2023-12-07T10:16:05;9.98;;;5.78;;
20146;SDS011;10234;50.856;15.716;2023-12-07T10:18:34;9.30;;;6.15;;
20146;SDS011;10234;50.856;15.716;2023-12-07T10:21:01;11.70;;;5.82;;
20146;SDS011;10234;50.856;15.716;2023-12-07T10:23:28;8.35;;;5.93;;
20146;SDS011;10234;50.856;15.716;2023-12-07T10:25:57;8.10;;;5.35;;
20146;SDS011;10234;50.856;15.716;2023-12-07T10:28:25;7.07;;;5.60;;
20146;SDS011;10234;50.856;15.716;2023-12-07T10:30:52;8.65;;;5.35;;
20146;SDS011;10234;50.856;15.716;2023-12-07T10:33:19;7.60;;;5.15;;
20146;SDS011;10234;50.856;15.716;2023-12-07T10:35:46;6.88;;;5.38;;
20146;SDS011;10234;50.856;15.716;2023-12-07T10:38:15;9.65;;;5.72;;
20146;SDS011;10234;50.856;15.716;2023-12-07T10:40:43;6.93;;;5.43;;
20146;SDS011;10234;50.856;15.716;2023-12-07T10:43:12;9.90;;;5.55;;
20146;SDS011;10234;50.856;15.716;2023-12-07T10:45:41;9.88;;;6.20;;
20146;SDS011;10234;50.856;15.716;2023-12-07T10:48:09;8.85;;;5.68;;
20146;SDS011;10234;50.856;15.716;2023-12-07T10:50:37;11.13;;;5.97;;
20146;SDS011;10234;50.856;15.716;2023-12-07T10:53:09;10.15;;;6.45;;
20146;SDS011;10234;50.856;15.716;2023-12-07T10:55:38;9.75;;;6.72;;
20146;SDS011;10234;50.856;15.716;2023-12-07T10:58:12;11.75;;;7.15;;
20146;SDS011;10234;50.856;15.716;2023-12-07T11:00:43;11.50;;;6.68;;
20146;SDS011;10234;50.856;15.716;2023-12-07T11:03:13;10.43;;;6.63;;
20146;SDS011;10234;50.856;15.716;2023-12-07T11:05:42;11.30;;;7.00;;
20146;SDS011;10234;50.856;15.716;2023-12-07T11:08:11;12.50;;;7.25;;
20146;SDS011;10234;50.856;15.716;2023-12-07T11:10:45;12.82;;;6.50;;
20146;SDS011;10234;50.856;15.716;2023-12-07T11:13:17;8.40;;;5.63;;
20146;SDS011;10234;50.856;15.716;2023-12-07T11:15:50;9.38;;;5.60;;
20146;SDS011;10234;50.856;15.716;2023-12-07T11:18:18;12.05;;;7.38;;
20146;SDS011;10234;50.856;15.716;2023-12-07T11:20:45;11.43;;;7.18;;
20146;SDS011;10234;50.856;15.716;2023-12-07T11:23:15;12.40;;;7.38;;
20146;SDS011;10234;50.856;15.716;2023-12-07T11:25:43;15.27;;;7.03;;
20146;SDS011;10234;50.856;15.716;2023-12-07T11:28:10;10.23;;;6.85;;
20146;SDS011;10234;50.856;15.716;2023-12-07T11:30:38;11.75;;;7.43;;
20146;SDS011;10234;50.856;15.716;2023-12-07T11:33:10;10.10;;;6.75;;
20146;SDS011;10234;50.856;15.716;2023-12-07T11:38:31;8.93;;;5.80;;
20146;SDS011;10234;50.856;15.716;2023-12-07T11:40:58;12.13;;;5.32;;
20146;SDS011;10234;50.856;15.716;2023-12-07T11:43:41;9.55;;;6.70;;
20146;SDS011;10234;50.856;15.716;2023-12-07T11:46:11;12.63;;;6.22;;
20146;SDS011;10234;50.856;15.716;2023-12-07T11:48:46;9.10;;;6.18;;
20146;SDS011;10234;50.856;15.716;2023-12-07T11:51:15;10.98;;;6.72;;
20146;SDS011;10234;50.856;15.716;2023-12-07T11:53:42;11.90;;;6.65;;
20146;SDS011;10234;50.856;15.716;2023-12-07T11:56:09;11.52;;;6.10;;
20146;SDS011;10234;50.856;15.716;2023-12-07T11:58:38;10.40;;;6.40;;
20146;SDS011;10234;50.856;15.716;2023-12-07T12:01:05;10.07;;;6.30;;
20146;SDS011;10234;50.856;15.716;2023-12-07T12:03:32;8.18;;;6.25;;
20146;SDS011;10234;50.856;15.716;2023-12-07T12:06:03;7.30;;;5.57;;
20146;SDS011;10234;50.856;15.716;2023-12-07T12:08:32;7.85;;;5.22;;
20146;SDS011;10234;50.856;15.716;2023-12-07T12:10:59;10.02;;;7.03;;
20146;SDS011;10234;50.856;15.716;2023-12-07T12:13:27;19.27;;;11.50;;
20146;SDS011;10234;50.856;15.716;2023-12-07T12:15:55;6.28;;;5.20;;
20146;SDS011;10234;50.856;15.716;2023-12-07T12:18:22;7.55;;;4.78;;
20146;SDS011;10234;50.856;15.716;2023-12-07T12:20:50;7.05;;;4.70;;
20146;SDS011;10234;50.856;15.716;2023-12-07T12:23:19;5.30;;;4.03;;
20146;SDS011;10234;50.856;15.716;2023-12-07T12:25:46;5.90;;;4.05;;
20146;SDS011;10234;50.856;15.716;2023-12-07T12:28:15;7.22;;;5.05;;
20146;SDS011;10234;50.856;15.716;2023-12-07T12:30:43;6.43;;;4.22;;
20146;SDS011;10234;50.856;15.716;2023-12-07T12:33:10;5.93;;;4.65;;
20146;SDS011;10234;50.856;15.716;2023-12-07T12:35:39;7.15;;;3.97;;
20146;SDS011;10234;50.856;15.716;2023-12-07T12:38:09;6.10;;;4.05;;
20146;SDS011;10234;50.856;15.716;2023-12-07T12:40:38;6.47;;;4.13;;
20146;SDS011;10234;50.856;15.716;2023-12-07T12:43:06;5.45;;;3.92;;
20146;SDS011;10234;50.856;15.716;2023-12-07T12:45:33;6.22;;;4.30;;
20146;SDS011;10234;50.856;15.716;2023-12-07T12:48:01;5.68;;;4.30;;
20146;SDS011;10234;50.856;15.716;2023-12-07T12:50:34;5.47;;;4.20;;
20146;SDS011;10234;50.856;15.716;2023-12-07T12:53:04;4.85;;;3.45;;
20146;SDS011;10234;50.856;15.716;2023-12-07T12:55:32;7.05;;;4.55;;
20146;SDS011;10234;50.856;15.716;2023-12-07T12:58:02;6.20;;;3.97;;
20146;SDS011;10234;50.856;15.716;2023-12-07T13:00:30;7.60;;;4.55;;
20146;SDS011;10234;50.856;15.716;2023-12-07T13:02:59;5.40;;;3.80;;
20146;SDS011;10234;50.856;15.716;2023-12-07T13:05:26;6.03;;;4.15;;
20146;SDS011;10234;50.856;15.716;2023-12-07T13:07:53;6.90;;;4.30;;
20146;SDS011;10234;50.856;15.716;2023-12-07T13:10:20;6.82;;;3.95;;
20146;SDS011;10234;50.856;15.716;2023-12-07T13:12:47;10.18;;;4.45;;
20146;SDS011;10234;50.856;15.716;2023-12-07T13:15:15;9.23;;;4.38;;
20146;SDS011;10234;50.856;15.716;2023-12-07T13:17:42;7.20;;;4.18;;
20146;SDS011;10234;50.856;15.716;2023-12-07T13:20:10;5.38;;;4.15;;
20146;SDS011;10234;50.856;15.716;2023-12-07T13:22:38;9.43;;;3.92;;
20146;SDS011;10234;50.856;15.716;2023-12-07T13:25:06;6.43;;;3.70;;
20146;SDS011;10234;50.856;15.716;2023-12-07T13:27:33;5.65;;;4.00;;
20146;SDS011;10234;50.856;15.716;2023-12-07T13:30:00;7.20;;;4.38;;
20146;SDS011;10234;50.856;15.716;2023-12-07T13:32:31;8.77;;;4.78;;
20146;SDS011;10234;50.856;15.716;2023-12-07T13:34:59;6.45;;;4.15;;
20146;SDS011;10234;50.856;15.716;2023-12-07T13:37:26;7.35;;;4.47;;
20146;SDS011;10234;50.856;15.716;2023-12-07T13:39:53;7.05;;;4.75;;
20146;SDS011;10234;50.856;15.716;2023-12-07T13:42:23;9.48;;;4.43;;
20146;SDS011;10234;50.856;15.716;2023-12-07T13:44:52;6.53;;;4.68;;
20146;SDS011;10234;50.856;15.716;2023-12-07T13:47:21;8.05;;;4.78;;
20146;SDS011;10234;50.856;15.716;2023-12-07T13:49:55;7.45;;;4.88;;
20146;SDS011;10234;50.856;15.716;2023-12-07T13:52:22;7.30;;;5.00;;
20146;SDS011;10234;50.856;15.716;2023-12-07T13:54:49;7.50;;;5.00;;
20146;SDS011;10234;50.856;15.716;2023-12-07T13:57:17;10.68;;;5.68;;
20146;SDS011;10234;50.856;15.716;2023-12-07T13:59:45;9.57;;;5.70;;
20146;SDS011;10234;50.856;15.716;2023-12-07T14:02:12;9.75;;;6.28;;
20146;SDS011;10234;50.856;15.716;2023-12-07T14:04:40;9.93;;;6.20;;
20146;SDS011;10234;50.856;15.716;2023-12-07T14:07:09;11.20;;;5.65;;
20146;SDS011;10234;50.856;15.716;2023-12-07T14:09:37;8.60;;;5.22;;
20146;SDS011;10234;50.856;15.716;2023-12-07T14:12:04;10.20;;;6.15;;
20146;SDS011;10234;50.856;15.716;2023-12-07T14:14:31;9.57;;;4.80;;
20146;SDS011;10234;50.856;15.716;2023-12-07T14:16:58;6.32;;;4.32;;
20146;SDS011;10234;50.856;15.716;2023-12-07T14:19:25;9.80;;;6.00;;
20146;SDS011;10234;50.856;15.716;2023-12-07T14:21:53;9.18;;;6.28;;
20146;SDS011;10234;50.856;15.716;2023-12-07T14:24:22;13.68;;;7.18;;
20146;SDS011;10234;50.856;15.716;2023-12-07T14:26:49;10.95;;;6.72;;